Terminal Aerodrome Forecast
Issued by NWS Austin/San Antonio, TX

Home | Current Version | Previous Version | Text Only | Print | Product List | Glossary On
Versions: 1 2 3 4 5 6 7 8 9 10 11 12 13 14 15 16 17 18 19 20 21 22 23 24 25 26 27
000
FTUS44 KEWX 020500
TAFAUS
TAF
KAUS 020520Z 0206/0312 01009KT 4SM -DZ BR OVC007
     FM020900 01011KT 1 1/2SM BR OVC004
     FM021400 02010KT 4SM BR OVC007
     FM030000 04004KT 1SM BR OVC004=

USA.gov is the U.S. government's official web portal to all federal, state and local government web resources and services.